createdAt,value
2023-08-17T00:02:28.834Z,0.30
2023-08-17T00:05:30.440Z,0.43
2023-08-17T00:08:31.958Z,0.45
2023-08-17T00:11:33.581Z,0.68
2023-08-17T00:14:35.316Z,0.55
2023-08-17T00:17:36.919Z,0.43
2023-08-17T00:20:38.476Z,0.40
2023-08-17T00:23:40.048Z,0.20
2023-08-17T00:26:41.687Z,0.43
2023-08-17T00:29:43.278Z,0.30
2023-08-17T00:32:44.943Z,0.22
2023-08-17T00:35:46.616Z,0.20
2023-08-17T00:38:48.214Z,0.60
2023-08-17T00:41:49.808Z,0.38
2023-08-17T00:44:51.381Z,0.25
2023-08-17T00:47:53.001Z,0.15
2023-08-17T00:50:54.766Z,0.30
2023-08-17T00:53:56.472Z,0.43
2023-08-17T00:56:58.051Z,0.25
2023-08-17T01:00:05.490Z,0.50
2023-08-17T01:03:07.999Z,0.22
2023-08-17T01:06:09.614Z,0.38
2023-08-17T01:09:11.225Z,1.25
2023-08-17T01:12:12.822Z,0.43
2023-08-17T01:15:14.394Z,0.43
2023-08-17T01:18:15.928Z,0.55
2023-08-17T01:21:17.631Z,0.30
2023-08-17T01:24:19.176Z,0.38
2023-08-17T01:27:20.747Z,0.32
2023-08-17T01:30:22.459Z,0.30
2023-08-17T01:33:24.088Z,0.30
2023-08-17T01:36:25.694Z,0.50
2023-08-17T01:39:27.270Z,0.50
2023-08-17T01:42:28.856Z,0.43
2023-08-17T01:45:30.453Z,0.90
2023-08-17T01:48:32.039Z,0.50
2023-08-17T01:51:33.655Z,0.38
2023-08-17T01:54:35.483Z,0.47
2023-08-17T01:57:37.080Z,0.50
2023-08-17T02:00:38.732Z,0.30
2023-08-17T02:03:40.394Z,0.60
2023-08-17T02:06:42.034Z,0.93
2023-08-17T02:09:43.594Z,1.27
2023-08-17T02:12:45.199Z,2.03
2023-08-17T02:15:47.318Z,1.45
2023-08-17T02:18:48.917Z,1.65
2023-08-17T02:21:50.569Z,1.38
2023-08-17T02:24:52.133Z,0.75
2023-08-17T02:27:53.740Z,1.30
2023-08-17T02:30:55.321Z,1.77
2023-08-17T02:33:57.034Z,1.35
2023-08-17T02:36:58.662Z,1.27
2023-08-17T02:40:00.442Z,1.80
2023-08-17T02:43:02.028Z,0.98
2023-08-17T02:46:03.623Z,1.10
2023-08-17T02:49:05.178Z,1.25
2023-08-17T02:52:06.854Z,1.45
2023-08-17T02:55:08.431Z,1.23
2023-08-17T02:58:10.125Z,1.38
2023-08-17T03:01:11.765Z,1.55
2023-08-17T03:04:13.436Z,1.52
2023-08-17T03:07:15.111Z,0.95
2023-08-17T03:10:16.694Z,1.20
2023-08-17T03:13:18.559Z,1.05
2023-08-17T03:16:20.185Z,1.65
2023-08-17T03:19:21.812Z,1.27
2023-08-17T03:22:23.446Z,1.17
2023-08-17T03:25:25.049Z,1.00
2023-08-17T03:28:26.775Z,1.27
2023-08-17T03:31:28.388Z,1.75
2023-08-17T03:34:30.046Z,1.85
2023-08-17T03:37:31.618Z,1.50
2023-08-17T03:40:33.200Z,2.15
2023-08-17T03:43:34.832Z,2.00
2023-08-17T03:46:36.404Z,2.22
2023-08-17T03:49:38.189Z,2.28
2023-08-17T03:52:39.809Z,1.55
2023-08-17T03:55:41.420Z,1.77
2023-08-17T03:58:42.955Z,2.13
2023-08-17T04:01:44.597Z,1.52
2023-08-17T04:04:46.259Z,1.77
2023-08-17T04:07:47.940Z,1.63
2023-08-17T04:10:49.505Z,1.35
2023-08-17T04:13:51.156Z,1.02
2023-08-17T04:16:52.750Z,2.03
2023-08-17T04:19:54.472Z,1.52
2023-08-17T04:22:56.129Z,1.10
2023-08-17T04:25:57.735Z,1.40
2023-08-17T04:28:59.324Z,1.13
2023-08-17T04:32:00.996Z,1.00
2023-08-17T04:35:02.575Z,1.35
2023-08-17T04:38:04.182Z,1.38
2023-08-17T04:41:05.769Z,1.30
2023-08-17T04:44:07.437Z,0.85
2023-08-17T04:47:09.019Z,1.30
2023-08-17T04:50:10.636Z,0.73
2023-08-17T04:53:12.198Z,1.40
2023-08-17T04:56:13.885Z,0.75
2023-08-17T04:59:15.529Z,1.13
2023-08-17T05:02:17.318Z,0.77
2023-08-17T05:05:18.970Z,0.75
2023-08-17T05:08:20.572Z,0.73
2023-08-17T05:11:22.200Z,1.50
2023-08-17T05:14:23.811Z,0.88
2023-08-17T05:17:25.623Z,1.15
2023-08-17T05:20:27.457Z,1.88
2023-08-17T05:23:29.004Z,1.42
2023-08-17T05:26:30.668Z,1.65
2023-08-17T05:29:32.252Z,0.90
2023-08-17T05:32:33.857Z,0.50
2023-08-17T05:35:35.505Z,1.20
2023-08-17T05:38:37.094Z,0.85
2023-08-17T05:41:38.745Z,0.98
2023-08-17T05:44:40.332Z,1.55
2023-08-17T05:47:41.958Z,1.40
2023-08-17T05:50:43.622Z,1.70
2023-08-17T05:53:45.223Z,1.30
2023-08-17T05:56:46.824Z,1.10
2023-08-17T05:59:48.414Z,1.00
2023-08-17T06:02:50.091Z,1.05
2023-08-17T06:05:51.714Z,0.90
2023-08-17T06:08:53.293Z,1.30
2023-08-17T06:11:54.923Z,1.13
2023-08-17T06:14:56.501Z,0.60
2023-08-17T06:17:58.171Z,1.33
2023-08-17T06:21:04.043Z,1.10
2023-08-17T06:24:05.699Z,0.73
2023-08-17T06:27:07.280Z,0.70
2023-08-17T06:30:08.881Z,1.20
2023-08-17T06:33:10.551Z,1.05
2023-08-17T06:36:12.262Z,0.82
2023-08-17T06:39:13.831Z,0.82
2023-08-17T06:42:15.565Z,0.50
2023-08-17T06:45:17.254Z,0.93
2023-08-17T06:48:18.884Z,0.50
2023-08-17T06:51:20.464Z,1.10
2023-08-17T06:54:22.052Z,1.10
2023-08-17T06:57:23.807Z,0.85
2023-08-17T07:00:25.573Z,1.27
2023-08-17T07:03:27.287Z,1.10
2023-08-17T07:06:29.058Z,0.75
2023-08-17T07:09:30.736Z,0.98
2023-08-17T07:12:32.343Z,1.27
2023-08-17T07:15:33.946Z,1.27
2023-08-17T07:18:35.650Z,1.00
2023-08-17T07:21:37.359Z,0.77
2023-08-17T07:24:38.978Z,1.25
2023-08-17T07:27:40.535Z,1.23
2023-08-17T07:30:42.172Z,1.58
2023-08-17T07:33:43.832Z,1.35
2023-08-17T07:36:45.467Z,1.95
2023-08-17T07:39:47.022Z,1.17
2023-08-17T07:42:48.685Z,2.00
2023-08-17T07:45:50.396Z,1.67
2023-08-17T07:48:52.092Z,1.13
2023-08-17T07:51:53.705Z,1.17
2023-08-17T07:54:55.288Z,1.17
2023-08-17T07:57:56.896Z,1.42
2023-08-17T08:00:58.464Z,0.95
2023-08-17T08:04:00.297Z,0.98
2023-08-17T08:07:01.924Z,0.85
2023-08-17T08:10:03.581Z,1.27
2023-08-17T08:13:05.167Z,0.85
2023-08-17T08:16:06.844Z,1.08
2023-08-17T08:19:08.484Z,0.90
2023-08-17T08:22:10.126Z,1.10
2023-08-17T08:25:11.691Z,1.33
2023-08-17T08:28:13.377Z,1.08
2023-08-17T08:31:15.043Z,2.17
2023-08-17T08:34:16.649Z,1.02
2023-08-17T08:37:18.210Z,1.13
2023-08-17T08:40:19.813Z,0.82
2023-08-17T08:43:21.455Z,1.50
2023-08-17T08:46:23.046Z,0.90
2023-08-17T08:49:24.684Z,1.38
2023-08-17T08:52:26.285Z,0.82
2023-08-17T08:55:27.858Z,0.70
2023-08-17T08:58:29.460Z,0.82
2023-08-17T09:01:31.123Z,1.00
2023-08-17T09:04:32.734Z,1.15
2023-08-17T09:07:34.392Z,0.80
2023-08-17T09:10:38.915Z,1.15
2023-08-17T09:13:40.960Z,1.05
2023-08-17T09:16:42.604Z,1.10
2023-08-17T09:19:44.230Z,1.15
2023-08-17T09:22:45.791Z,1.00
2023-08-17T09:25:47.542Z,1.67
2023-08-17T09:28:49.073Z,1.08
2023-08-17T09:31:50.743Z,1.00
2023-08-17T09:34:52.361Z,1.10
2023-08-17T09:37:54.004Z,1.13
2023-08-17T09:40:55.748Z,0.63
2023-08-17T09:43:57.367Z,0.50
2023-08-17T09:46:58.996Z,0.80
2023-08-17T09:50:00.658Z,0.90
2023-08-17T09:53:02.203Z,1.27
2023-08-17T09:56:03.805Z,1.40
2023-08-17T09:59:05.430Z,1.15
2023-08-17T10:02:06.984Z,1.25
2023-08-17T10:05:08.703Z,1.30
2023-08-17T10:08:10.451Z,1.20
2023-08-17T10:11:12.096Z,0.70
2023-08-17T10:14:13.706Z,0.80
2023-08-17T10:17:15.263Z,0.60
2023-08-17T10:20:16.919Z,0.80
2023-08-17T10:23:18.483Z,0.60
2023-08-17T10:26:20.081Z,0.90
2023-08-17T10:29:21.703Z,0.75
2023-08-17T10:32:23.292Z,0.43
2023-08-17T10:35:27.778Z,0.85
2023-08-17T10:38:29.420Z,0.95
2023-08-17T10:41:31.028Z,0.60
2023-08-17T10:44:32.587Z,1.02
2023-08-17T10:47:36.427Z,0.80
2023-08-17T10:50:42.935Z,0.50
2023-08-17T10:53:45.158Z,0.50
2023-08-17T10:56:47.176Z,0.52
2023-08-17T10:59:48.714Z,0.43
2023-08-17T11:02:50.437Z,0.85
2023-08-17T11:05:52.051Z,0.60
2023-08-17T11:08:53.623Z,0.57
2023-08-17T11:11:55.265Z,0.40
2023-08-17T11:15:00.012Z,1.13
2023-08-17T11:18:02.090Z,0.85
2023-08-17T11:21:03.683Z,0.40
2023-08-17T11:24:05.383Z,0.20
2023-08-17T11:27:06.947Z,0.65
2023-08-17T11:30:08.564Z,1.10
2023-08-17T11:33:10.307Z,0.30
2023-08-17T11:36:11.875Z,0.88
2023-08-17T11:39:13.468Z,1.05
2023-08-17T11:42:20.179Z,0.30
2023-08-17T11:45:27.706Z,0.32
2023-08-17T11:48:29.759Z,0.30
2023-08-17T11:51:31.517Z,0.40
2023-08-17T11:54:33.081Z,0.45
2023-08-17T11:57:34.739Z,0.63
2023-08-17T12:00:36.428Z,0.60
2023-08-17T12:03:38.115Z,0.32
2023-08-17T12:06:39.781Z,0.22
2023-08-17T12:09:41.427Z,0.65
2023-08-17T12:12:43.078Z,0.25
2023-08-17T12:15:44.841Z,0.50
2023-08-17T12:18:46.516Z,0.60
2023-08-17T12:21:48.243Z,0.60
2023-08-17T12:24:49.875Z,0.70
2023-08-17T12:27:51.511Z,0.40
2023-08-17T12:30:53.125Z,0.43
2023-08-17T12:33:54.819Z,0.40
2023-08-17T12:36:56.449Z,0.43
2023-08-17T12:39:58.061Z,0.60
2023-08-17T12:42:59.618Z,0.50
2023-08-17T12:46:01.245Z,0.43
2023-08-17T12:49:02.797Z,0.52
2023-08-17T12:52:04.364Z,0.30
2023-08-17T12:55:05.961Z,0.50
2023-08-17T12:58:07.580Z,0.30
2023-08-17T13:01:09.279Z,0.73
2023-08-17T13:04:10.922Z,0.30
2023-08-17T13:07:12.559Z,0.50
2023-08-17T13:10:14.219Z,1.95
2023-08-17T13:13:15.826Z,0.52
2023-08-17T13:16:17.430Z,0.85
2023-08-17T13:19:19.053Z,0.68
2023-08-17T13:22:20.660Z,0.70
2023-08-17T13:25:22.259Z,0.85
2023-08-17T13:28:23.815Z,0.98
2023-08-17T13:31:25.469Z,0.90
2023-08-17T13:34:27.123Z,0.60
2023-08-17T13:37:28.732Z,0.85
2023-08-17T13:40:30.450Z,1.52
2023-08-17T13:43:32.045Z,0.80
2023-08-17T13:46:33.717Z,0.52
2023-08-17T13:49:35.479Z,0.63
2023-08-17T13:52:37.085Z,0.90
2023-08-17T13:55:38.757Z,0.60
2023-08-17T13:58:40.317Z,0.45
2023-08-17T14:01:41.932Z,0.63
2023-08-17T14:04:43.578Z,1.00
2023-08-17T14:07:45.157Z,0.63
2023-08-17T14:10:46.787Z,0.98
2023-08-17T14:13:48.440Z,1.17
2023-08-17T14:16:50.012Z,1.20
2023-08-17T14:19:51.615Z,0.85
2023-08-17T14:22:53.385Z,0.70
2023-08-17T14:25:55.009Z,0.88
2023-08-17T14:28:56.617Z,1.08
2023-08-17T14:31:58.306Z,1.52
2023-08-17T14:34:59.921Z,0.77
2023-08-17T14:38:01.565Z,1.02
2023-08-17T14:41:03.246Z,0.98
2023-08-17T14:44:04.881Z,0.75
2023-08-17T14:47:06.462Z,0.68
2023-08-17T14:50:08.063Z,0.85
2023-08-17T14:53:09.703Z,0.85
2023-08-17T14:56:11.294Z,0.80
2023-08-17T14:59:12.989Z,1.15
2023-08-17T15:02:14.606Z,0.60
2023-08-17T15:05:16.307Z,0.90
2023-08-17T15:08:17.837Z,0.82
2023-08-17T15:11:19.413Z,1.20
2023-08-17T15:14:21.014Z,1.10
2023-08-17T15:17:22.654Z,0.95
2023-08-17T15:20:24.255Z,1.48
2023-08-17T15:23:25.856Z,1.00
2023-08-17T15:26:27.497Z,1.05
2023-08-17T15:29:29.180Z,0.93
2023-08-17T15:32:30.882Z,1.15
2023-08-17T15:35:32.532Z,0.60
2023-08-17T15:38:34.087Z,2.30
2023-08-17T15:41:35.732Z,0.98
2023-08-17T15:44:37.381Z,1.02
2023-08-17T15:47:39.040Z,1.52
2023-08-17T15:50:40.717Z,1.00
2023-08-17T15:53:42.279Z,0.57
2023-08-17T15:56:43.875Z,1.38
2023-08-17T15:59:45.580Z,0.73
2023-08-17T16:02:47.252Z,1.60
2023-08-17T16:05:49.011Z,1.10
2023-08-17T16:08:50.582Z,1.20
2023-08-17T16:11:52.140Z,1.25
2023-08-17T16:14:53.744Z,1.10
2023-08-17T16:18:00.758Z,1.25
2023-08-17T16:21:02.725Z,1.20
2023-08-17T16:24:04.517Z,1.00
2023-08-17T16:27:06.125Z,1.27
2023-08-17T16:30:07.813Z,1.10
2023-08-17T16:33:15.681Z,1.33
2023-08-17T16:36:17.760Z,1.40
2023-08-17T16:39:19.371Z,1.13
2023-08-17T16:42:21.015Z,1.45
2023-08-17T16:45:22.578Z,1.90
2023-08-17T16:48:25.249Z,1.27
2023-08-17T16:54:28.602Z,1.73
2023-08-17T16:57:30.415Z,1.23
2023-08-17T17:00:32.047Z,1.65
2023-08-17T17:03:33.696Z,1.85
2023-08-17T17:06:35.321Z,1.58
2023-08-17T17:09:36.880Z,1.80
2023-08-17T17:12:38.475Z,1.58
2023-08-17T17:15:40.073Z,1.00
2023-08-17T17:18:41.736Z,1.35
2023-08-17T17:21:43.303Z,1.60
2023-08-17T17:24:44.885Z,1.73
2023-08-17T17:27:46.520Z,1.58
2023-08-17T17:30:48.132Z,1.25
2023-08-17T17:33:49.827Z,0.90
2023-08-17T17:36:51.437Z,1.20
2023-08-17T17:39:53.058Z,1.90
2023-08-17T17:42:54.677Z,1.80
2023-08-17T17:45:56.302Z,1.27
2023-08-17T17:48:57.951Z,1.52
2023-08-17T17:51:59.630Z,1.80
2023-08-17T17:55:01.314Z,1.65
2023-08-17T17:58:02.950Z,1.77
2023-08-17T18:01:04.643Z,1.73
2023-08-17T18:04:06.277Z,1.65
2023-08-17T18:07:07.867Z,2.33
2023-08-17T18:10:09.597Z,1.65
2023-08-17T18:13:11.167Z,1.63
2023-08-17T18:16:12.792Z,1.20
2023-08-17T18:19:15.271Z,1.05
2023-08-17T18:22:16.929Z,1.58
2023-08-17T18:25:18.634Z,0.90
2023-08-17T18:28:20.225Z,1.70
2023-08-17T18:31:21.969Z,1.50
2023-08-17T18:34:23.633Z,1.45
2023-08-17T18:37:25.281Z,1.38
2023-08-17T18:40:26.992Z,1.70
2023-08-17T18:43:28.584Z,0.88
2023-08-17T18:46:30.232Z,1.27
2023-08-17T18:49:31.846Z,1.85
2023-08-17T18:52:33.496Z,1.17
2023-08-17T18:55:35.150Z,1.20
2023-08-17T18:58:36.758Z,1.42
2023-08-17T19:01:38.363Z,1.58
2023-08-17T19:04:40.032Z,1.17
2023-08-17T19:07:41.662Z,1.55
2023-08-17T19:10:43.228Z,1.25
2023-08-17T19:13:44.834Z,1.50
2023-08-17T19:16:46.595Z,1.95
2023-08-17T19:19:48.258Z,2.53
2023-08-17T19:22:49.844Z,1.10
2023-08-17T19:25:51.547Z,1.80
2023-08-17T19:28:53.162Z,1.70
2023-08-17T19:31:54.833Z,1.92
2023-08-17T19:34:56.438Z,1.50
2023-08-17T19:37:58.113Z,1.05
2023-08-17T19:40:59.671Z,1.35
2023-08-17T19:44:01.294Z,1.10
2023-08-17T19:47:03.032Z,1.15
2023-08-17T19:50:04.694Z,1.33
2023-08-17T19:53:06.285Z,1.90
2023-08-17T19:56:08.022Z,1.15
2023-08-17T19:59:09.645Z,1.08
2023-08-17T20:02:11.218Z,1.02
2023-08-17T20:05:12.855Z,1.27
2023-08-17T20:08:14.483Z,1.60
2023-08-17T20:11:16.103Z,0.98
2023-08-17T20:14:18.518Z,1.52
2023-08-17T20:17:21.594Z,3.03
2023-08-17T20:20:23.222Z,2.05
2023-08-17T20:23:24.824Z,1.65
2023-08-17T20:26:26.541Z,1.42
2023-08-17T20:29:28.104Z,1.58
2023-08-17T20:32:29.742Z,1.10
2023-08-17T20:35:31.356Z,1.40
2023-08-17T20:38:32.964Z,1.50
2023-08-17T20:41:34.713Z,1.85
2023-08-17T20:44:36.416Z,1.67
2023-08-17T20:47:38.102Z,1.27
2023-08-17T20:50:39.722Z,1.30
2023-08-17T20:53:44.183Z,1.17
2023-08-17T20:56:45.829Z,1.20
2023-08-17T20:59:47.413Z,1.60
2023-08-17T21:02:49.138Z,2.08
2023-08-17T21:05:50.874Z,1.58
2023-08-17T21:08:52.808Z,1.40
2023-08-17T21:11:54.461Z,1.25
2023-08-17T21:14:56.043Z,1.27
2023-08-17T21:17:57.734Z,1.90
2023-08-17T21:20:59.416Z,1.63
2023-08-17T21:24:01.040Z,1.73
2023-08-17T21:27:02.658Z,1.17
2023-08-17T21:30:04.273Z,1.75
2023-08-17T21:33:05.961Z,1.42
2023-08-17T21:36:07.605Z,1.50
2023-08-17T21:39:09.182Z,1.15
2023-08-17T21:42:10.781Z,1.63
2023-08-17T21:45:12.377Z,1.17
2023-08-17T21:48:13.978Z,1.20
2023-08-17T21:51:15.738Z,1.42
2023-08-17T21:54:17.279Z,1.42
2023-08-17T21:57:18.925Z,1.50
2023-08-17T22:00:20.536Z,1.45
2023-08-17T22:03:22.246Z,2.38
2023-08-17T22:06:23.865Z,1.90
2023-08-17T22:09:25.491Z,1.67
2023-08-17T22:12:27.077Z,2.33
2023-08-17T22:15:28.637Z,1.30
2023-08-17T22:18:30.229Z,1.55
2023-08-17T22:21:31.821Z,2.03
2023-08-17T22:24:41.666Z,1.65
2023-08-17T22:27:51.258Z,1.85
2023-08-17T22:30:52.927Z,1.40
2023-08-17T22:33:54.635Z,1.23
2023-08-17T22:36:56.267Z,1.48
2023-08-17T22:39:57.884Z,1.00
2023-08-17T22:42:59.468Z,1.45
2023-08-17T22:46:01.114Z,1.58
2023-08-17T22:49:02.733Z,0.90
2023-08-17T22:52:04.328Z,1.08
2023-08-17T22:55:05.922Z,1.58
2023-08-17T22:58:07.505Z,2.17
2023-08-17T23:01:09.157Z,1.27
2023-08-17T23:04:10.758Z,1.75
2023-08-17T23:07:12.355Z,1.70
2023-08-17T23:10:14.005Z,2.13
2023-08-17T23:13:15.667Z,1.67
2023-08-17T23:16:17.298Z,1.02
2023-08-17T23:19:18.994Z,1.15
2023-08-17T23:22:20.614Z,1.17
2023-08-17T23:25:22.184Z,1.00
2023-08-17T23:28:23.758Z,1.05
2023-08-17T23:31:25.437Z,1.17
2023-08-17T23:34:27.046Z,1.63
2023-08-17T23:37:28.827Z,1.38
2023-08-17T23:40:30.720Z,1.27
2023-08-17T23:43:32.327Z,0.70
2023-08-17T23:46:33.902Z,1.27
2023-08-17T23:49:35.533Z,1.33
2023-08-17T23:52:37.110Z,1.00
2023-08-17T23:55:38.654Z,1.33
2023-08-17T23:58:40.240Z,1.52
